PWSweather.com
Personal Weather Stations
Station Observations
IHTIMAN1
Neighbourhood 1, IhtimanBG 2050

Neighbourhood 1IhtimanBG 2050

Lat: 42.436852, Lon: 23.817921

Elevation: 2066

Station Type: Oregon Scientific WMR968

http://ihtiman-meteo.com

High Low Average
Temperature 71.4°F21.9°C 37.9°F3.3°C 54.4°F12.4°C
Dew Point 40.8°F4.9°C 28.8°F-1.8°C 35.5°F1.9°C
Winds 6.7 mph 10.8 kmh Calm Calm 1.0 mph S1.6 kmh S
Wind Gusts 10.9 mph17.5 kmh -- 2.0 mph3.2 kmh
Humidity 83% 32% 51%
Pressure 30.03 in1016.9 mb 29.97 in1014.9 mb -
Precipitation 0.00 in0.0 mm - -
Hour Temp Dew Point Humidity Winds Wind Gusts Pressure Precip Precip Rate Daily Precip Total
12:00 AM 46.6°F8.1°C 32.1°F0.1°C 57% Calm Calm -- 30.03 in1016.9 mb - 0.00 in0.0 mm 0.00 in0.0 mm
12:10 AM 46.2°F7.9°C 32.2°F0.1°C 58% Calm Calm 2.2 mph3.5 kmh 30.03 in1016.9 mb - 0.00 in0.0 mm 0.00 in0.0 mm
12:20 AM 46.0°F7.8°C 32.5°F0.3°C 59% Calm Calm -- 30.03 in1016.9 mb - 0.00 in0.0 mm 0.00 in0.0 mm
12:30 AM 45.7°F7.6°C 32.2°F0.1°C 59% Calm Calm -- 30.03 in1016.9 mb - 0.00 in0.0 mm 0.00 in0.0 mm
12:40 AM 45.3°F7.4°C 32.2°F0.1°C 60% Calm Calm -- 30.03 in1016.9 mb - 0.00 in0.0 mm 0.00 in0.0 mm
12:50 AM 45.1°F7.3°C 32.1°F0.1°C 60% Calm Calm -- 30.03 in1016.9 mb - 0.00 in0.0 mm 0.00 in0.0 mm
01:00 AM 44.6°F7.0°C 31.6°F-0.2°C 60% Calm Calm -- 30.03 in1016.9 mb - 0.00 in0.0 mm 0.00 in0.0 mm
01:10 AM 44.0°F6.7°C 31.4°F-0.3°C 61% Calm Calm -- 30.03 in1016.9 mb - 0.00 in0.0 mm 0.00 in0.0 mm
01:20 AM 43.5°F6.4°C 31.0°F-0.6°C 61% Calm Calm -- 30.03 in1016.9 mb - 0.00 in0.0 mm 0.00 in0.0 mm
01:30 AM 43.2°F6.2°C 30.6°F-0.8°C 61% Calm Calm -- 30.03 in1016.9 mb - 0.00 in0.0 mm 0.00 in0.0 mm
01:40 AM 43.0°F6.1°C 30.8°F-0.7°C 62% Calm Calm -- 30.00 in1015.9 mb - 0.00 in0.0 mm 0.00 in0.0 mm
01:50 AM 43.0°F6.1°C 30.8°F-0.7°C 62% Calm Calm -- 30.00 in1015.9 mb - 0.00 in0.0 mm 0.00 in0.0 mm
02:00 AM 42.8°F6.0°C 30.7°F-0.7°C 62% Calm Calm -- 30.00 in1015.9 mb - 0.00 in0.0 mm 0.00 in0.0 mm
02:10 AM 42.6°F5.9°C 30.9°F-0.6°C 63% Calm Calm -- 30.00 in1015.9 mb - 0.00 in0.0 mm 0.00 in0.0 mm
02:20 AM 42.3°F5.7°C 30.6°F-0.8°C 63% Calm Calm -- 30.00 in1015.9 mb - 0.00 in0.0 mm 0.00 in0.0 mm
02:30 AM 41.9°F5.5°C 30.6°F-0.8°C 64% Calm Calm -- 30.00 in1015.9 mb - 0.00 in0.0 mm 0.00 in0.0 mm
02:40 AM 41.7°F5.4°C 30.4°F-0.9°C 64% Calm Calm -- 30.00 in1015.9 mb - 0.00 in0.0 mm 0.00 in0.0 mm
02:50 AM 41.4°F5.2°C 30.1°F-1.1°C 64% Calm Calm -- 30.00 in1015.9 mb - 0.00 in0.0 mm 0.00 in0.0 mm
03:00 AM 41.0°F5.0°C 29.8°F-1.2°C 64% Calm Calm -- 30.00 in1015.9 mb - 0.00 in0.0 mm 0.00 in0.0 mm
03:10 AM 40.8°F4.9°C 30.0°F-1.1°C 65% Calm Calm -- 30.00 in1015.9 mb - 0.00 in0.0 mm 0.00 in0.0 mm
03:20 AM 40.6°F4.8°C 29.8°F-1.2°C 65% Calm Calm -- 30.00 in1015.9 mb - 0.00 in0.0 mm 0.00 in0.0 mm
03:30 AM 40.5°F4.7°C 29.6°F-1.3°C 65% Calm Calm -- 30.00 in1015.9 mb - 0.00 in0.0 mm 0.00 in0.0 mm
03:40 AM 40.2°F4.6°C 29.7°F-1.3°C 66% Calm Calm -- 30.00 in1015.9 mb - 0.00 in0.0 mm 0.00 in0.0 mm
03:50 AM 39.9°F4.4°C 29.5°F-1.4°C 66% Calm Calm -- 30.00 in1015.9 mb - 0.00 in0.0 mm 0.00 in0.0 mm
04:00 AM 39.7°F4.3°C 29.3°F-1.5°C 66% Calm Calm -- 30.00 in1015.9 mb - 0.00 in0.0 mm 0.00 in0.0 mm
04:10 AM 39.6°F4.2°C 29.1°F-1.6°C 66% Calm Calm -- 30.00 in1015.9 mb - 0.00 in0.0 mm 0.00 in0.0 mm
04:20 AM 39.4°F4.1°C 29.3°F-1.5°C 67% Calm Calm -- 30.00 in1015.9 mb - 0.00 in0.0 mm 0.00 in0.0 mm
04:30 AM 39.3°F4.1°C 29.2°F-1.6°C 67% Calm Calm -- 30.00 in1015.9 mb - 0.00 in0.0 mm 0.00 in0.0 mm
04:40 AM 39.1°F3.9°C 29.4°F-1.4°C 68% Calm Calm -- 30.00 in1015.9 mb - 0.00 in0.0 mm 0.00 in0.0 mm
04:50 AM 38.8°F3.8°C 29.2°F-1.6°C 68% Calm Calm -- 30.00 in1015.9 mb - 0.00 in0.0 mm 0.00 in0.0 mm
05:00 AM 38.7°F3.7°C 29.0°F-1.7°C 68% Calm Calm -- 30.00 in1015.9 mb - 0.00 in0.0 mm 0.00 in0.0 mm
05:10 AM 38.5°F3.6°C 28.8°F-1.8°C 68% Calm Calm -- 30.00 in1015.9 mb - 0.00 in0.0 mm 0.00 in0.0 mm
05:20 AM 38.5°F3.6°C 29.2°F-1.6°C 69% Calm Calm -- 30.00 in1015.9 mb - 0.00 in0.0 mm 0.00 in0.0 mm
05:30 AM 38.5°F3.6°C 29.2°F-1.6°C 69% Calm Calm -- 30.01 in1016.3 mb - 0.00 in0.0 mm 0.00 in0.0 mm
05:40 AM 38.3°F3.5°C 29.0°F-1.7°C 69% Calm Calm -- 30.03 in1016.9 mb - 0.00 in0.0 mm 0.00 in0.0 mm
05:50 AM 38.1°F3.4°C 28.8°F-1.8°C 69% Calm Calm -- 30.00 in1015.9 mb - 0.00 in0.0 mm 0.00 in0.0 mm
06:00 AM 37.9°F3.3°C 29.0°F-1.7°C 70% Calm Calm -- 30.00 in1015.9 mb - 0.00 in0.0 mm 0.00 in0.0 mm
06:10 AM 37.9°F3.3°C 29.0°F-1.7°C 70% Calm Calm -- 30.00 in1015.9 mb - 0.00 in0.0 mm 0.00 in0.0 mm
06:20 AM 38.1°F3.4°C 29.5°F-1.4°C 71% Calm Calm -- 30.03 in1016.9 mb - 0.00 in0.0 mm 0.00 in0.0 mm
06:30 AM 38.8°F3.8°C 30.6°F-0.8°C 72% Calm Calm -- 30.03 in1016.9 mb - 0.00 in0.0 mm 0.00 in0.0 mm
06:40 AM 40.5°F4.7°C 34.8°F1.6°C 80% Calm Calm -- 30.00 in1015.9 mb - 0.00 in0.0 mm 0.00 in0.0 mm
06:50 AM 41.7°F5.4°C 36.9°F2.7°C 83% Calm Calm -- 30.03 in1016.9 mb - 0.00 in0.0 mm 0.00 in0.0 mm
07:00 AM 42.4°F5.8°C 37.3°F2.9°C 82% Calm Calm -- 30.03 in1016.9 mb - 0.00 in0.0 mm 0.00 in0.0 mm
07:10 AM 43.3°F6.3°C 37.8°F3.2°C 81% Calm Calm -- 30.03 in1016.9 mb - 0.00 in0.0 mm 0.00 in0.0 mm
07:20 AM 44.1°F6.7°C 38.3°F3.5°C 80% Calm Calm -- 30.00 in1015.9 mb - 0.00 in0.0 mm 0.00 in0.0 mm
07:30 AM 44.8°F7.1°C 39.1°F3.9°C 80% Calm Calm -- 30.00 in1015.9 mb - 0.00 in0.0 mm 0.00 in0.0 mm
07:40 AM 46.0°F7.8°C 39.2°F4.0°C 77% Calm Calm -- 30.00 in1015.9 mb - 0.00 in0.0 mm 0.00 in0.0 mm
07:50 AM 46.6°F8.1°C 38.4°F3.6°C 73% Calm Calm -- 30.03 in1016.9 mb - 0.00 in0.0 mm 0.00 in0.0 mm
08:00 AM 47.7°F8.7°C 39.4°F4.1°C 73% Calm Calm -- 30.03 in1016.9 mb - 0.00 in0.0 mm 0.00 in0.0 mm
08:10 AM 47.8°F8.8°C 38.5°F3.6°C 70% Calm Calm -- 30.03 in1016.9 mb - 0.00 in0.0 mm 0.00 in0.0 mm
08:20 AM 47.8°F8.8°C 38.9°F3.8°C 71% Calm Calm -- 30.00 in1015.9 mb - 0.00 in0.0 mm 0.00 in0.0 mm
08:30 AM 48.4°F9.1°C 38.7°F3.7°C 69% Calm Calm -- 30.00 in1015.9 mb - 0.00 in0.0 mm 0.00 in0.0 mm
08:40 AM 49.4°F9.7°C 38.5°F3.6°C 66% Calm Calm -- 30.00 in1015.9 mb - 0.00 in0.0 mm 0.00 in0.0 mm
08:50 AM 51.6°F10.9°C 38.6°F3.7°C 61% 0.7 mph SSE1.1 kmh SSE -- 30.00 in1015.9 mb - 0.00 in0.0 mm 0.00 in0.0 mm
09:00 AM 53.5°F11.9°C 39.0°F3.9°C 58% 1.2 mph SSE1.9 kmh SSE 3.6 mph5.8 kmh 30.00 in1015.9 mb - 0.00 in0.0 mm 0.00 in0.0 mm
09:10 AM 56.8°F13.8°C 40.4°F4.7°C 54% Calm Calm 2.7 mph4.3 kmh 30.00 in1015.9 mb - 0.00 in0.0 mm 0.00 in0.0 mm
09:20 AM 56.8°F13.8°C 39.8°F4.3°C 53% 1.3 mph SE2.1 kmh SE 4.0 mph6.4 kmh 30.00 in1015.9 mb - 0.00 in0.0 mm 0.00 in0.0 mm
09:30 AM 56.8°F13.8°C 38.9°F3.8°C 51% Calm Calm -- 30.00 in1015.9 mb - 0.00 in0.0 mm 0.00 in0.0 mm
09:40 AM 58.1°F14.5°C 40.1°F4.5°C 51% Calm Calm -- 30.00 in1015.9 mb - 0.00 in0.0 mm 0.00 in0.0 mm
09:50 AM 59.2°F15.1°C 40.1°F4.5°C 49% 0.8 mph SE1.3 kmh SE 2.7 mph4.3 kmh 30.00 in1015.9 mb - 0.00 in0.0 mm 0.00 in0.0 mm
10:00 AM 60.6°F15.9°C 40.8°F4.9°C 48% Calm Calm -- 30.00 in1015.9 mb - 0.00 in0.0 mm 0.00 in0.0 mm
10:10 AM 61.2°F16.2°C 39.6°F4.2°C 45% Calm Calm -- 30.00 in1015.9 mb - 0.00 in0.0 mm 0.00 in0.0 mm
10:20 AM 62.2°F16.8°C 40.0°F4.4°C 44% 1.6 mph S2.6 kmh S 2.2 mph3.5 kmh 30.00 in1015.9 mb - 0.00 in0.0 mm 0.00 in0.0 mm
10:30 AM 63.9°F17.7°C 38.4°F3.6°C 39% 2.7 mph S4.3 kmh S 6.3 mph10.1 kmh 30.00 in1015.9 mb - 0.00 in0.0 mm 0.00 in0.0 mm
10:40 AM 65.1°F18.4°C 38.2°F3.4°C 37% 3.8 mph ESE6.1 kmh ESE 4.0 mph6.4 kmh 30.00 in1015.9 mb - 0.00 in0.0 mm 0.00 in0.0 mm
10:50 AM 65.5°F18.6°C 38.5°F3.6°C 37% 1.0 mph SSE1.6 kmh SSE 3.1 mph5.0 kmh 30.00 in1015.9 mb - 0.00 in0.0 mm 0.00 in0.0 mm
11:00 AM 65.8°F18.8°C 36.6°F2.6°C 34% 2.5 mph SE4.0 kmh SE 6.3 mph10.1 kmh 30.00 in1015.9 mb - 0.00 in0.0 mm 0.00 in0.0 mm
11:10 AM 65.5°F18.6°C 35.6°F2.0°C 33% 6.7 mph SE10.8 kmh SE 10.9 mph17.5 kmh 30.00 in1015.9 mb - 0.00 in0.0 mm 0.00 in0.0 mm
11:20 AM 64.6°F18.1°C 35.6°F2.0°C 34% 3.1 mph ESE5.0 kmh ESE 4.9 mph7.9 kmh 30.00 in1015.9 mb - 0.00 in0.0 mm 0.00 in0.0 mm
11:30 AM 65.6°F18.7°C 36.4°F2.4°C 34% 4.3 mph SE6.9 kmh SE 8.0 mph12.9 kmh 30.00 in1015.9 mb - 0.00 in0.0 mm 0.00 in0.0 mm
11:40 AM 64.9°F18.3°C 35.8°F2.1°C 34% 3.7 mph SE6.0 kmh SE 7.6 mph12.2 kmh 30.00 in1015.9 mb - 0.00 in0.0 mm 0.00 in0.0 mm
11:50 AM 65.5°F18.6°C 36.4°F2.4°C 34% 2.9 mph ESE4.7 kmh ESE 5.4 mph8.7 kmh 30.00 in1015.9 mb - 0.00 in0.0 mm 0.00 in0.0 mm
12:00 PM 65.6°F18.7°C 35.7°F2.1°C 33% 5.5 mph SE8.9 kmh SE 6.3 mph10.1 kmh 30.00 in1015.9 mb - 0.00 in0.0 mm 0.00 in0.0 mm
12:10 PM 65.1°F18.4°C 35.3°F1.8°C 33% 0.4 mph SE0.6 kmh SE 5.8 mph9.3 kmh 30.00 in1015.9 mb - 0.00 in0.0 mm 0.00 in0.0 mm
12:20 PM 66.4°F19.1°C 36.4°F2.4°C 33% 3.9 mph E6.3 kmh E 5.4 mph8.7 kmh 30.00 in1015.9 mb - 0.00 in0.0 mm 0.00 in0.0 mm
12:30 PM 66.2°F19.0°C 36.2°F2.3°C 33% 3.2 mph SE5.1 kmh SE 7.6 mph12.2 kmh 30.00 in1015.9 mb - 0.00 in0.0 mm 0.00 in0.0 mm
12:40 PM 65.7°F18.7°C 35.8°F2.1°C 33% Calm Calm 2.7 mph4.3 kmh 30.00 in1015.9 mb - 0.00 in0.0 mm 0.00 in0.0 mm
12:50 PM 66.9°F19.4°C 36.9°F2.7°C 33% Calm Calm 2.2 mph3.5 kmh 30.00 in1015.9 mb - 0.00 in0.0 mm 0.00 in0.0 mm
01:00 PM 68.6°F20.3°C 37.6°F3.1°C 32% 4.6 mph SE7.4 kmh SE 5.8 mph9.3 kmh 30.00 in1015.9 mb - 0.00 in0.0 mm 0.00 in0.0 mm
01:10 PM 70.1°F21.2°C 38.9°F3.8°C 32% 2.4 mph SE3.9 kmh SE 5.8 mph9.3 kmh 30.00 in1015.9 mb - 0.00 in0.0 mm 0.00 in0.0 mm
01:20 PM 70.7°F21.5°C 39.3°F4.1°C 32% 2.5 mph S4.0 kmh S 6.3 mph10.1 kmh 30.00 in1015.9 mb - 0.00 in0.0 mm 0.00 in0.0 mm
01:30 PM 71.4°F21.9°C 40.0°F4.4°C 32% 4.1 mph S6.6 kmh S 6.3 mph10.1 kmh 30.00 in1015.9 mb - 0.00 in0.0 mm 0.00 in0.0 mm
01:40 PM 69.0°F20.6°C 37.9°F3.3°C 32% 4.3 mph S6.9 kmh S 5.8 mph9.3 kmh 30.00 in1015.9 mb - 0.00 in0.0 mm 0.00 in0.0 mm
01:50 PM 67.4°F19.7°C 37.3°F2.9°C 33% 1.6 mph S2.6 kmh S 5.4 mph8.7 kmh 30.00 in1015.9 mb - 0.00 in0.0 mm 0.00 in0.0 mm
02:00 PM 68.9°F20.5°C 37.8°F3.2°C 32% 2.8 mph SSW4.5 kmh SSW 7.6 mph12.2 kmh 30.00 in1015.9 mb - 0.00 in0.0 mm 0.00 in0.0 mm
02:10 PM 69.8°F21.0°C 38.6°F3.7°C 32% 2.6 mph SSE4.2 kmh SSE 5.4 mph8.7 kmh 29.97 in1014.9 mb - 0.00 in0.0 mm 0.00 in0.0 mm
02:20 PM 71.4°F21.9°C 40.0°F4.4°C 32% 3.4 mph SSE5.5 kmh SSE 4.9 mph7.9 kmh 29.97 in1014.9 mb - 0.00 in0.0 mm 0.00 in0.0 mm
02:30 PM 71.2°F21.8°C 39.8°F4.3°C 32% 2.9 mph SSE4.7 kmh SSE 3.6 mph5.8 kmh 29.97 in1014.9 mb - 0.00 in0.0 mm 0.00 in0.0 mm
02:40 PM 69.0°F20.6°C 37.9°F3.3°C 32% Calm Calm -- 29.97 in1014.9 mb - 0.00 in0.0 mm 0.00 in0.0 mm
02:50 PM 67.5°F19.7°C 37.3°F2.9°C 33% 2.4 mph SE3.9 kmh SE 3.1 mph5.0 kmh 29.97 in1014.9 mb - 0.00 in0.0 mm 0.00 in0.0 mm
03:00 PM 67.3°F19.6°C 37.2°F2.9°C 33% 5.0 mph SE8.0 kmh SE 7.6 mph12.2 kmh 29.97 in1014.9 mb - 0.00 in0.0 mm 0.00 in0.0 mm
03:10 PM 66.4°F19.1°C 36.4°F2.4°C 33% 5.4 mph SE8.7 kmh SE 6.3 mph10.1 kmh 29.97 in1014.9 mb - 0.00 in0.0 mm 0.00 in0.0 mm
03:20 PM 66.4°F19.1°C 36.4°F2.4°C 33% 4.5 mph ESE7.2 kmh ESE 7.6 mph12.2 kmh 29.97 in1014.9 mb - 0.00 in0.0 mm 0.00 in0.0 mm
03:30 PM 65.4°F18.6°C 36.3°F2.4°C 34% 4.3 mph SE6.9 kmh SE 4.9 mph7.9 kmh 29.97 in1014.9 mb - 0.00 in0.0 mm 0.00 in0.0 mm
03:40 PM 64.5°F18.1°C 35.5°F1.9°C 34% 6.5 mph SE10.5 kmh SE 8.7 mph14.0 kmh 29.97 in1014.9 mb - 0.00 in0.0 mm 0.00 in0.0 mm
03:50 PM 63.9°F17.7°C 36.4°F2.4°C 36% 4.7 mph SE7.6 kmh SE 6.3 mph10.1 kmh 29.97 in1014.9 mb - 0.00 in0.0 mm 0.00 in0.0 mm
04:00 PM 64.0°F17.8°C 36.5°F2.5°C 36% 4.7 mph ESE7.6 kmh ESE 5.4 mph8.7 kmh 29.97 in1014.9 mb - 0.00 in0.0 mm 0.00 in0.0 mm
04:10 PM 65.5°F18.6°C 37.1°F2.8°C 35% 5.9 mph ESE9.5 kmh ESE 7.6 mph12.2 kmh 29.97 in1014.9 mb - 0.00 in0.0 mm 0.00 in0.0 mm
04:20 PM 64.2°F17.9°C 36.7°F2.6°C 36% 4.3 mph SE6.9 kmh SE 5.8 mph9.3 kmh 29.97 in1014.9 mb - 0.00 in0.0 mm 0.00 in0.0 mm
04:30 PM 63.4°F17.4°C 35.9°F2.2°C 36% 4.9 mph ESE7.9 kmh ESE 7.6 mph12.2 kmh 29.97 in1014.9 mb - 0.00 in0.0 mm 0.00 in0.0 mm
04:40 PM 62.8°F17.1°C 36.1°F2.3°C 37% 3.0 mph ESE4.8 kmh ESE 4.0 mph6.4 kmh 29.97 in1014.9 mb - 0.00 in0.0 mm 0.00 in0.0 mm
04:50 PM 62.8°F17.1°C 35.4°F1.9°C 36% 5.2 mph SE8.4 kmh SE 7.6 mph12.2 kmh 29.97 in1014.9 mb - 0.00 in0.0 mm 0.00 in0.0 mm
05:00 PM 62.6°F17.0°C 35.9°F2.2°C 37% 4.4 mph SE7.1 kmh SE 6.7 mph10.8 kmh 29.97 in1014.9 mb - 0.00 in0.0 mm 0.00 in0.0 mm
05:10 PM 62.2°F16.8°C 36.3°F2.4°C 38% 3.1 mph ESE5.0 kmh ESE 4.9 mph7.9 kmh 29.97 in1014.9 mb - 0.00 in0.0 mm 0.00 in0.0 mm
05:20 PM 62.2°F16.8°C 36.3°F2.4°C 38% 4.4 mph SE7.1 kmh SE 5.4 mph8.7 kmh 29.97 in1014.9 mb - 0.00 in0.0 mm 0.00 in0.0 mm
05:30 PM 62.4°F16.9°C 36.5°F2.5°C 38% 4.0 mph SE6.4 kmh SE 6.3 mph10.1 kmh 29.97 in1014.9 mb - 0.00 in0.0 mm 0.00 in0.0 mm
05:40 PM 62.4°F16.9°C 36.5°F2.5°C 38% 2.8 mph S4.5 kmh S 3.6 mph5.8 kmh 29.97 in1014.9 mb - 0.00 in0.0 mm 0.00 in0.0 mm
05:50 PM 62.2°F16.8°C 36.3°F2.4°C 38% 1.8 mph SE2.9 kmh SE 4.0 mph6.4 kmh 29.97 in1014.9 mb - 0.00 in0.0 mm 0.00 in0.0 mm
06:00 PM 62.1°F16.7°C 36.8°F2.7°C 39% 0.8 mph SE1.3 kmh SE 3.6 mph5.8 kmh 29.97 in1014.9 mb - 0.00 in0.0 mm 0.00 in0.0 mm
06:10 PM 61.9°F16.6°C 36.6°F2.6°C 39% 1.2 mph SE1.9 kmh SE 4.9 mph7.9 kmh 29.97 in1014.9 mb - 0.00 in0.0 mm 0.00 in0.0 mm
06:20 PM 61.5°F16.4°C 36.3°F2.4°C 39% 1.0 mph SE1.6 kmh SE -- 29.97 in1014.9 mb - 0.00 in0.0 mm 0.00 in0.0 mm
06:30 PM 61.3°F16.3°C 36.8°F2.7°C 40% 0.3 mph S0.5 kmh S 3.6 mph5.8 kmh 29.97 in1014.9 mb - 0.00 in0.0 mm 0.00 in0.0 mm
06:40 PM 61.3°F16.3°C 38.0°F3.3°C 42% Calm Calm -- 29.97 in1014.9 mb - 0.00 in0.0 mm 0.00 in0.0 mm
06:50 PM 61.3°F16.3°C 38.0°F3.3°C 42% Calm Calm -- 29.97 in1014.9 mb - 0.00 in0.0 mm 0.00 in0.0 mm
07:00 PM 61.3°F16.3°C 38.0°F3.3°C 42% Calm Calm -- 29.97 in1014.9 mb - 0.00 in0.0 mm 0.00 in0.0 mm
07:10 PM 61.2°F16.2°C 37.9°F3.3°C 42% Calm Calm -- 29.97 in1014.9 mb - 0.00 in0.0 mm 0.00 in0.0 mm
07:20 PM 61.0°F16.1°C 37.7°F3.2°C 42% Calm Calm -- 29.97 in1014.9 mb - 0.00 in0.0 mm 0.00 in0.0 mm
07:30 PM 60.8°F16.0°C 37.5°F3.1°C 42% Calm Calm -- 29.97 in1014.9 mb - 0.00 in0.0 mm 0.00 in0.0 mm
07:40 PM 60.4°F15.8°C 37.8°F3.2°C 43% Calm Calm -- 29.97 in1014.9 mb - 0.00 in0.0 mm 0.00 in0.0 mm
07:50 PM 60.1°F15.6°C 38.7°F3.7°C 45% Calm Calm 2.7 mph4.3 kmh 29.97 in1014.9 mb - 0.00 in0.0 mm 0.00 in0.0 mm
08:00 PM 59.5°F15.3°C 38.1°F3.4°C 45% Calm Calm -- 29.97 in1014.9 mb - 0.00 in0.0 mm 0.00 in0.0 mm
08:10 PM 58.5°F14.7°C 37.8°F3.2°C 46% Calm Calm -- 29.97 in1014.9 mb - 0.00 in0.0 mm 0.00 in0.0 mm
08:20 PM 58.0°F14.4°C 38.4°F3.6°C 48% Calm Calm -- 29.97 in1014.9 mb - 0.00 in0.0 mm 0.00 in0.0 mm
08:30 PM 57.7°F14.3°C 38.2°F3.4°C 48% Calm Calm -- 29.97 in1014.9 mb - 0.00 in0.0 mm 0.00 in0.0 mm
08:40 PM 57.4°F14.1°C 37.8°F3.2°C 48% Calm Calm -- 29.97 in1014.9 mb - 0.00 in0.0 mm 0.00 in0.0 mm
08:50 PM 57.0°F13.9°C 38.0°F3.3°C 49% Calm Calm -- 29.97 in1014.9 mb - 0.00 in0.0 mm 0.00 in0.0 mm
09:00 PM 56.8°F13.8°C 37.9°F3.3°C 49% Calm Calm -- 29.97 in1014.9 mb - 0.00 in0.0 mm 0.00 in0.0 mm
09:10 PM 56.5°F13.6°C 37.5°F3.1°C 49% Calm Calm -- 29.97 in1014.9 mb - 0.00 in0.0 mm 0.00 in0.0 mm
09:20 PM 56.1°F13.4°C 37.7°F3.2°C 50% Calm Calm -- 29.97 in1014.9 mb - 0.00 in0.0 mm 0.00 in0.0 mm
09:30 PM 55.8°F13.2°C 37.4°F3.0°C 50% Calm Calm -- 29.97 in1014.9 mb - 0.00 in0.0 mm 0.00 in0.0 mm
09:40 PM 55.2°F12.9°C 37.4°F3.0°C 51% Calm Calm -- 29.97 in1014.9 mb - 0.00 in0.0 mm 0.00 in0.0 mm
09:50 PM 54.9°F12.7°C 37.1°F2.8°C 51% Calm Calm -- 29.97 in1014.9 mb - 0.00 in0.0 mm 0.00 in0.0 mm
10:00 PM 54.5°F12.5°C 37.2°F2.9°C 52% Calm Calm -- 29.97 in1014.9 mb - 0.00 in0.0 mm 0.00 in0.0 mm
10:10 PM 54.1°F12.3°C 37.3°F2.9°C 53% Calm Calm -- 29.97 in1014.9 mb - 0.00 in0.0 mm 0.00 in0.0 mm
10:20 PM 53.6°F12.0°C 36.9°F2.7°C 53% Calm Calm -- 29.97 in1014.9 mb - 0.00 in0.0 mm 0.00 in0.0 mm
10:30 PM 53.2°F11.8°C 37.0°F2.8°C 54% Calm Calm -- 29.97 in1014.9 mb - 0.00 in0.0 mm 0.00 in0.0 mm
10:40 PM 52.9°F11.6°C 37.1°F2.8°C 55% Calm Calm -- 29.97 in1014.9 mb - 0.00 in0.0 mm 0.00 in0.0 mm
10:50 PM 52.5°F11.4°C 37.2°F2.9°C 56% Calm Calm -- 29.97 in1014.9 mb - 0.00 in0.0 mm 0.00 in0.0 mm
11:00 PM 52.2°F11.2°C 36.9°F2.7°C 56% Calm Calm -- 29.97 in1014.9 mb - 0.00 in0.0 mm 0.00 in0.0 mm
11:10 PM 51.8°F11.0°C 37.0°F2.8°C 57% Calm Calm -- 29.97 in1014.9 mb - 0.00 in0.0 mm 0.00 in0.0 mm
11:20 PM 51.6°F10.9°C 37.3°F2.9°C 58% Calm Calm -- 29.97 in1014.9 mb - 0.00 in0.0 mm 0.00 in0.0 mm
11:30 PM 51.1°F10.6°C 36.8°F2.7°C 58% Calm Calm -- 29.97 in1014.9 mb - 0.00 in0.0 mm 0.00 in0.0 mm
11:40 PM 50.5°F10.3°C 36.3°F2.4°C 58% Calm Calm -- 29.97 in1014.9 mb - 0.00 in0.0 mm 0.00 in0.0 mm
11:50 PM 50.2°F10.1°C 36.4°F2.4°C 59% Calm Calm -- 29.97 in1014.9 mb - 0.00 in0.0 mm 0.00 in0.0 mm